CG Abbie Burgess — NVAF — position and weather

sailwx.info

Track history (hours):
 
Tides and Currents Weather Stations Pressure Air Temp Water Temp Dewpoint Dewpoint Depression Visibility Wind Speed Wind Dir Waves Ship Positions

CG Abbie Burgess

Last reported at 2018-Feb-22 09:00 UTC. Time now 2018-Feb-22 09:18 UTC.
Position N 44°07' W 068°55'.

Length 53 m; draft 2.7 m.

Type: Military. MMSI: 368941000.

Date/timePositionNaut miles runAvg speedWind from/ knotsBaromVisibWave heightAir tempDewpointWater temp
2018-Feb-22 09:00N 44°07' W 068°55'0 0.0
2018-Feb-22 08:29N 44°07' W 068°55'0 0.0
2018-Feb-22 07:58N 44°07' W 068°55'0 0.0
2018-Feb-22 07:29N 44°07' W 068°55'0 0.0
2018-Feb-22 07:00N 44°07' W 068°55'0 0.0
2018-Feb-22 06:30N 44°07' W 068°55'0 0.0
2018-Feb-22 06:00N 44°07' W 068°55'0 0.0
2018-Feb-22 05:29N 44°07' W 068°55'0 0.0
2018-Feb-22 05:00N 44°07' W 068°55'0 0.0
2018-Feb-22 04:27N 44°07' W 068°55'0 0.0
2018-Feb-22 03:57N 44°07' W 068°55'0 0.0
2018-Feb-22 03:30N 44°07' W 068°55'0 0.0
2018-Feb-22 02:58N 44°07' W 068°55'0 0.0
2018-Feb-22 02:30N 44°07' W 068°55'0 0.0
2018-Feb-22 01:58N 44°07' W 068°55'0 0.0
2018-Feb-22 01:26N 44°07' W 068°55'0 0.3
2018-Feb-22 00:59N 44°07' W 068°55'510.0
2018-Feb-22 00:29N 44°06' W 069°02'2 3.3
2018-Feb-21 23:58N 44°06' W 069°04'1 1.4
2018-Feb-21 23:29N 44°06' W 069°03'5 9.5
2018-Feb-21 23:00N 44°06' W 068°57'4 7.3
2018-Feb-21 22:30N 44°07' W 068°52'0 0.0
2018-Feb-21 21:57N 44°07' W 068°52'1 2.0
2018-Feb-21 21:30N 44°08' W 068°51'1 1.1
2018-Feb-21 20:58N 44°08' W 068°51'0 0.0
2018-Feb-21 20:27N 44°08' W 068°51'3 5.7
2018-Feb-21 19:59N 44°07' W 068°47'4 1.7
2018-Feb-21 17:48N 44°10' W 068°44'0 0.0
2018-Feb-21 17:25N 44°10' W 068°44'0 0.0
2018-Feb-21 16:59N 44°10' W 068°44'1 1.0
2018-Feb-21 16:23N 44°10' W 068°44'4 7.1
2018-Feb-21 15:52N 44°07' W 068°48'1 0.6
2018-Feb-21 13:40N 44°08' W 068°50'0 0.0
2018-Feb-21 13:29N 44°08' W 068°50'0 0.0
2018-Feb-21 12:53N 44°08' W 068°50'0 0.0
2018-Feb-21 12:29N 44°08' W 068°50'0 0.0
2018-Feb-21 11:16N 44°08' W 068°50'0 0.1
2018-Feb-21 10:55N 44°08' W 068°50'0 0.0
2018-Feb-21 10:25N 44°08' W 068°50'0 0.0
2018-Feb-21 09:52N 44°08' W 068°50'0 0.0
2018-Feb-21 09:28N 44°08' W 068°50'0 0.0
2018-Feb-21 08:58N 44°08' W 068°50'0 0.1
2018-Feb-21 08:28N 44°08' W 068°50'0 0.0
2018-Feb-21 07:49N 44°08' W 068°50'0 0.0
2018-Feb-21 07:28N 44°08' W 068°50'0 0.0
2018-Feb-21 06:58N 44°08' W 068°50'0 0.1
2018-Feb-21 06:28N 44°08' W 068°50'0 0.0
2018-Feb-21 05:58N 44°08' W 068°50'0 0.0
2018-Feb-21 05:29N 44°08' W 068°50'0 0.0
2018-Feb-21 04:59N 44°08' W 068°50'0 0.0
2018-Feb-21 04:29N 44°08' W 068°50'0 0.0
2018-Feb-21 03:58N 44°08' W 068°50'0 0.0
2018-Feb-21 03:26N 44°08' W 068°50'0 0.0
2018-Feb-21 02:52N 44°08' W 068°50'0 0.0
2018-Feb-21 02:28N 44°08' W 068°50'0 0.0
2018-Feb-21 01:52N 44°08' W 068°50'0 0.0
2018-Feb-21 01:27N 44°08' W 068°50'0 0.0
2018-Feb-21 00:58N 44°08' W 068°50'0 0.0
2018-Feb-21 00:28N 44°08' W 068°50'0 0.0
2018-Feb-20 23:51N 44°08' W 068°50'0 0.0
2018-Feb-20 23:29N 44°08' W 068°50'0 0.0
2018-Feb-20 23:00N 44°08' W 068°50'0 0.2
2018-Feb-20 22:27N 44°08' W 068°50'0 0.9
2018-Feb-20 21:59N 44°08' W 068°49'0 0.1
2018-Feb-20 21:26N 44°08' W 068°49'2 4.5
2018-Feb-20 21:00N 44°08' W 068°47'0 0.1
2018-Feb-20 20:30N 44°08' W 068°47'5 2.6
2018-Feb-20 18:38N 44°06' W 068°40'1 4.0
2018-Feb-20 18:30N 44°06' W 068°40'0 0.2
2018-Feb-20 17:50N 44°06' W 068°40'0 0.0
2018-Feb-20 17:24N 44°06' W 068°40'0 0.0
2018-Feb-20 16:58N 44°06' W 068°40'0 0.2
2018-Feb-20 16:30N 44°06' W 068°40'2 3.4
2018-Feb-20 15:53N 44°04' W 068°41'0 0.1
2018-Feb-20 15:30N 44°04' W 068°41'3 1.2
2018-Feb-20 13:10N 44°05' W 068°44'211.7
2018-Feb-20 12:59N 44°06' W 068°47'2 4.3
2018-Feb-20 12:28N 44°08' W 068°49'0 0.0
2018-Feb-20 11:59N 44°08' W 068°49'0 0.0
2018-Feb-20 11:29N 44°08' W 068°49'0 0.0
2018-Feb-20 10:58N 44°08' W 068°49'0 0.0
2018-Feb-20 10:29N 44°08' W 068°49'0 0.0
2018-Feb-20 10:00N 44°08' W 068°49'0 0.1
2018-Feb-20 09:26N 44°08' W 068°49'0 0.1
2018-Feb-20 09:00N 44°08' W 068°49'0 0.0
2018-Feb-20 08:28N 44°08' W 068°49'0 0.0
2018-Feb-20 08:00N 44°08' W 068°49'0 0.0
2018-Feb-20 07:28N 44°08' W 068°49'0 0.0
2018-Feb-20 07:00N 44°08' W 068°49'0 0.0
2018-Feb-20 06:29N 44°08' W 068°49'0 0.0
2018-Feb-20 05:59N 44°08' W 068°49'0 0.0
2018-Feb-20 05:28N 44°08' W 068°49'0 0.0
2018-Feb-20 04:59N 44°08' W 068°49'0 0.0
2018-Feb-20 04:30N 44°08' W 068°49'0 0.0
2018-Feb-20 03:58N 44°08' W 068°49'0 0.0
2018-Feb-20 03:29N 44°08' W 068°49'0 0.0
2018-Feb-20 03:00N 44°08' W 068°49'0 0.0
2018-Feb-20 02:30N 44°08' W 068°49'0 0.0
2018-Feb-20 02:00N 44°08' W 068°49'0 0.0
2018-Feb-20 01:29N 44°08' W 068°49'0 0.0
2018-Feb-20 01:00N 44°08' W 068°49'0 0.0
2018-Feb-20 00:28N 44°08' W 068°49'0 0.0
2018-Feb-20 00:00N 44°08' W 068°49'0 0.3
2018-Feb-19 23:29N 44°08' W 068°50'2 3.6
2018-Feb-19 23:01N 44°07' W 068°47'4 4.1
2018-Feb-19 22:00N 44°03' W 068°46'1 0.4
2018-Feb-19 19:47N 44°02' W 068°47'1 2.5
2018-Feb-19 19:30N 44°02' W 068°48'0 0.1
2018-Feb-19 18:58N 44°02' W 068°48'0 0.1
2018-Feb-19 18:25N 44°02' W 068°48'0 0.2
2018-Feb-19 17:01N 44°02' W 068°48'0 0.7
2018-Feb-19 16:58N 44°02' W 068°47'2 3.4
2018-Feb-19 16:30N 44°01' W 068°50'1 1.2
2018-Feb-19 15:58N 44°01' W 068°50'0 0.0
2018-Feb-19 15:29N 44°01' W 068°50'0 0.0
2018-Feb-19 15:00N 44°01' W 068°50'1 0.6
2018-Feb-19 13:33N 44°01' W 068°51'0 4.6
2018-Feb-19 13:29N 44°01' W 068°52'510.0
2018-Feb-19 13:00N 44°02' W 068°58'611.6
2018-Feb-19 12:30N 44°06' W 069°04'1 2.7
2018-Feb-19 11:58N 44°06' W 069°06'0 0.0
2018-Feb-19 11:28N 44°06' W 069°06'0 0.0
2018-Feb-19 10:59N 44°06' W 069°06'0 0.0
2018-Feb-19 10:29N 44°06' W 069°06'0 0.0
2018-Feb-19 09:59N 44°06' W 069°06'0 0.0
2018-Feb-19 09:28N 44°06' W 069°06'0 0.0
2018-Feb-19 09:00N 44°06' W 069°06'0 0.0
2018-Feb-19 08:24N 44°06' W 069°06'0 0.0
2018-Feb-19 07:58N 44°06' W 069°06'0 0.0
2018-Feb-19 07:28N 44°06' W 069°06'0 0.0
2018-Feb-19 06:58N 44°06' W 069°06'0 0.0
2018-Feb-19 06:28N 44°06' W 069°06'0 0.0
2018-Feb-19 05:58N 44°06' W 069°06'0 0.0
2018-Feb-19 05:28N 44°06' W 069°06'0 0.0
2018-Feb-19 05:00N 44°06' W 069°06'0 0.0
2018-Feb-19 04:28N 44°06' W 069°06'0 0.0
2018-Feb-19 03:58N 44°06' W 069°06'0 0.0
2018-Feb-19 03:28N 44°06' W 069°06'0 0.0
2018-Feb-19 02:58N 44°06' W 069°06'0 0.0
2018-Feb-19 02:28N 44°06' W 069°06'0 0.0
2018-Feb-19 01:58N 44°06' W 069°06'0 0.0
2018-Feb-19 01:29N 44°06' W 069°06'0 0.0
2018-Feb-19 00:59N 44°06' W 069°06'0 0.0
2018-Feb-19 00:29N 44°06' W 069°06'0 0.0
2018-Feb-18 23:59N 44°06' W 069°06'0 0.0
2018-Feb-18 23:29N 44°06' W 069°06'0 0.0
2018-Feb-18 22:58N 44°06' W 069°06'0 0.0
2018-Feb-18 22:29N 44°06' W 069°06'0 0.0
2018-Feb-18 21:58N 44°06' W 069°06'0 0.0
2018-Feb-18 21:28N 44°06' W 069°06'0 0.0
2018-Feb-18 20:58N 44°06' W 069°06'0 0.0
2018-Feb-18 20:28N 44°06' W 069°06'0 0.0
2018-Feb-18 19:56N 44°06' W 069°06'0 0.0
2018-Feb-18 19:28N 44°06' W 069°06'0 0.0
2018-Feb-18 18:58N 44°06' W 069°06'0 0.0
2018-Feb-18 18:28N 44°06' W 069°06'0 0.0
2018-Feb-18 17:58N 44°06' W 069°06'0 0.0
2018-Feb-18 17:28N 44°06' W 069°06'0 0.0
2018-Feb-18 16:58N 44°06' W 069°06'0 0.0
2018-Feb-18 16:28N 44°06' W 069°06'0 0.0
2018-Feb-18 15:58N 44°06' W 069°06'0 0.0
2018-Feb-18 15:28N 44°06' W 069°06'0 0.0
2018-Feb-18 14:58N 44°06' W 069°06'0 0.0
2018-Feb-18 14:28N 44°06' W 069°06'0 0.0
2018-Feb-18 13:59N 44°06' W 069°06'0 0.0
2018-Feb-18 13:29N 44°06' W 069°06'0 0.0
2018-Feb-18 12:58N 44°06' W 069°06'0 0.0
2018-Feb-18 12:28N 44°06' W 069°06'0 0.0
2018-Feb-18 11:59N 44°06' W 069°06'0 0.0
2018-Feb-18 11:28N 44°06' W 069°06'0 0.0
2018-Feb-18 10:58N 44°06' W 069°06'0 0.0
2018-Feb-18 10:28N 44°06' W 069°06'0 0.0
2018-Feb-18 09:58N 44°06' W 069°06'0 0.0
2018-Feb-18 09:28N 44°06' W 069°06'0 0.0
2018-Feb-18 08:58N 44°06' W 069°06'0 0.0
2018-Feb-18 08:28N 44°06' W 069°06'0 0.0
2018-Feb-18 07:58N 44°06' W 069°06'0 0.0
2018-Feb-18 07:28N 44°06' W 069°06'0 0.0
2018-Feb-18 06:58N 44°06' W 069°06'0 0.0
2018-Feb-18 06:28N 44°06' W 069°06'0 0.0
2018-Feb-18 05:58N 44°06' W 069°06'0 0.0
2018-Feb-18 05:28N 44°06' W 069°06'0 0.0
2018-Feb-18 04:59N 44°06' W 069°06'0 0.0
2018-Feb-18 04:29N 44°06' W 069°06'0 0.0
2018-Feb-18 03:59N 44°06' W 069°06'0 0.0
2018-Feb-18 03:28N 44°06' W 069°06'0 0.0
2018-Feb-18 02:58N 44°06' W 069°06'0 0.0
2018-Feb-18 02:28N 44°06' W 069°06'0 0.0
2018-Feb-18 01:58N 44°06' W 069°06'0 0.0
2018-Feb-18 01:28N 44°06' W 069°06'0 0.0
2018-Feb-18 00:58N 44°06' W 069°06'0 0.0
2018-Feb-18 00:28N 44°06' W 069°06'0 0.0
2018-Feb-17 23:58N 44°06' W 069°06'0 0.0
2018-Feb-17 23:27N 44°06' W 069°06'0 0.0
2018-Feb-17 22:58N 44°06' W 069°06'0 0.0
2018-Feb-17 22:28N 44°06' W 069°06'0 0.0
2018-Feb-17 21:59N 44°06' W 069°06'0 0.0
2018-Feb-17 21:29N 44°06' W 069°06'0 0.0
2018-Feb-17 20:59N 44°06' W 069°06'0 0.0
2018-Feb-17 20:29N 44°06' W 069°06'0 0.0
2018-Feb-17 19:59N 44°06' W 069°06'0 0.0
2018-Feb-17 19:28N 44°06' W 069°06'0 0.0
2018-Feb-17 18:58N 44°06' W 069°06'0 0.0
2018-Feb-17 18:28N 44°06' W 069°06'0 0.0
2018-Feb-17 17:58N 44°06' W 069°06'0 0.0
2018-Feb-17 17:28N 44°06' W 069°06'0 0.0
2018-Feb-17 16:58N 44°06' W 069°06'0 0.0
2018-Feb-17 16:28N 44°06' W 069°06'0 0.0
2018-Feb-17 15:58N 44°06' W 069°06'0 0.0
2018-Feb-17 15:28N 44°06' W 069°06'0 0.0
2018-Feb-17 14:58N 44°06' W 069°06'0 0.0
2018-Feb-17 14:28N 44°06' W 069°06'0 0.0
2018-Feb-17 13:56N 44°06' W 069°06'0 0.0
2018-Feb-17 13:28N 44°06' W 069°06'0 0.0
2018-Feb-17 12:58N 44°06' W 069°06'0 0.0
2018-Feb-17 12:28N 44°06' W 069°06'0 0.0
2018-Feb-17 11:58N 44°06' W 069°06'0 0.0
2018-Feb-17 11:28N 44°06' W 069°06'0 0.0
2018-Feb-17 10:58N 44°06' W 069°06'0 0.0
2018-Feb-17 10:29N 44°06' W 069°06'0 0.0
2018-Feb-17 09:59N 44°06' W 069°06'0 0.0
2018-Feb-17 09:29N 44°06' W 069°06'0 0.0
2018-Feb-17 08:59N 44°06' W 069°06'0 0.0
2018-Feb-17 08:29N 44°06' W 069°06'0 0.0
2018-Feb-17 07:59N 44°06' W 069°06'0 0.0
2018-Feb-17 07:28N 44°06' W 069°06'0 0.0
2018-Feb-17 06:58N 44°06' W 069°06'0 0.0
2018-Feb-17 06:28N 44°06' W 069°06'0 0.0
2018-Feb-17 05:58N 44°06' W 069°06'0 0.0
2018-Feb-17 05:28N 44°06' W 069°06'0 0.0
2018-Feb-17 04:58N 44°06' W 069°06'0 0.0
2018-Feb-17 04:30N 44°06' W 069°06'0 0.0
2018-Feb-17 03:59N 44°06' W 069°06'0 0.0
2018-Feb-17 03:28N 44°06' W 069°06'0 0.0
2018-Feb-17 02:58N 44°06' W 069°06'0 0.0
2018-Feb-17 02:28N 44°06' W 069°06'0 0.0
2018-Feb-17 01:58N 44°06' W 069°06'0 0.0
2018-Feb-17 01:28N 44°06' W 069°06'0 0.0
2018-Feb-17 00:58N 44°06' W 069°06'0 0.0
2018-Feb-17 00:28N 44°06' W 069°06'0 0.0
2018-Feb-16 23:58N 44°06' W 069°06'0 0.0
2018-Feb-16 23:28N 44°06' W 069°06'0 0.0
2018-Feb-16 22:59N 44°06' W 069°06'0 0.0
2018-Feb-16 22:29N 44°06' W 069°06'0 0.0
2018-Feb-16 21:59N 44°06' W 069°06'0 0.0
2018-Feb-16 21:29N 44°06' W 069°06'0 0.0
2018-Feb-16 20:59N 44°06' W 069°06'0 0.0
2018-Feb-16 20:28N 44°06' W 069°06'0 0.0
2018-Feb-16 19:58N 44°06' W 069°06'0 0.0
2018-Feb-16 19:28N 44°06' W 069°06'0 0.0
2018-Feb-16 18:59N 44°06' W 069°06'0 0.0
2018-Feb-16 18:28N 44°06' W 069°06'0 0.0
2018-Feb-16 17:58N 44°06' W 069°06'0 0.0
2018-Feb-16 17:28N 44°06' W 069°06'0 0.0
2018-Feb-16 16:58N 44°06' W 069°06'0 0.0
2018-Feb-16 16:23N 44°06' W 069°06'0 0.0
2018-Feb-16 15:58N 44°06' W 069°06'0 0.0
2018-Feb-16 15:28N 44°06' W 069°06'0 0.0
2018-Feb-16 14:59N 44°06' W 069°06'0 0.0
2018-Feb-16 14:29N 44°06' W 069°06'0 0.0
2018-Feb-16 13:59N 44°06' W 069°06'0 0.0
2018-Feb-16 13:29N 44°06' W 069°06'0 0.0
2018-Feb-16 12:59N 44°06' W 069°06'0 0.0
2018-Feb-16 12:28N 44°06' W 069°06'0 0.0
2018-Feb-16 11:58N 44°06' W 069°06'0 0.0
2018-Feb-16 11:28N 44°06' W 069°06'0 0.0
2018-Feb-16 10:58N 44°06' W 069°06'0 0.0
2018-Feb-16 10:28N 44°06' W 069°06'0 0.0
2018-Feb-16 09:55N 44°06' W 069°06'0 0.0
2018-Feb-16 09:28N 44°06' W 069°06'0 0.0
2018-Feb-16 08:58N 44°06' W 069°06'0 0.0
2018-Feb-16 08:30N 44°06' W 069°06'0 0.0
2018-Feb-16 07:58N 44°06' W 069°06'0 0.0
2018-Feb-16 07:29N 44°06' W 069°06'0 0.0
2018-Feb-16 07:00N 44°06' W 069°06'0 0.0
2018-Feb-16 06:29N 44°06' W 069°06'0 0.0
2018-Feb-16 05:58N 44°06' W 069°06'0 0.0
2018-Feb-16 05:28N 44°06' W 069°06'0 0.0
2018-Feb-16 04:52N 44°06' W 069°06'0 0.0
2018-Feb-16 04:29N 44°06' W 069°06'0 0.0
2018-Feb-16 03:58N 44°06' W 069°06'0 0.0
2018-Feb-16 03:28N 44°06' W 069°06'0 0.0
2018-Feb-16 02:58N 44°06' W 069°06'0 0.0
2018-Feb-16 02:28N 44°06' W 069°06'0 0.0
2018-Feb-16 01:59N 44°06' W 069°06'0 0.0
2018-Feb-16 01:28N 44°06' W 069°06'0 0.0
2018-Feb-16 00:58N 44°06' W 069°06'0 0.0
2018-Feb-16 00:29N 44°06' W 069°06'0 0.0
2018-Feb-15 23:59N 44°06' W 069°06'0 0.0
2018-Feb-15 23:29N 44°06' W 069°06'0 0.0
2018-Feb-15 22:59N 44°06' W 069°06'0 0.0
2018-Feb-15 22:29N 44°06' W 069°06'0 0.0
2018-Feb-15 21:59N 44°06' W 069°06'0 0.0
2018-Feb-15 21:28N 44°06' W 069°06'0 0.0
2018-Feb-15 20:58N 44°06' W 069°06'0 0.0
2018-Feb-15 20:28N 44°06' W 069°06'0 0.0
2018-Feb-15 19:58N 44°06' W 069°06'0 0.0
2018-Feb-15 19:28N 44°06' W 069°06'0 0.0
2018-Feb-15 18:58N 44°06' W 069°06'0 0.0
2018-Feb-15 18:29N 44°06' W 069°06'0 0.0
2018-Feb-15 17:59N 44°06' W 069°06'0 0.0
2018-Feb-15 17:28N 44°06' W 069°06'0 0.0
2018-Feb-15 16:59N 44°06' W 069°06'0 0.0
2018-Feb-15 16:29N 44°06' W 069°06'0 0.0
2018-Feb-15 15:59N 44°06' W 069°06'0 0.0
2018-Feb-15 15:29N 44°06' W 069°06'0 0.0
2018-Feb-15 14:59N 44°06' W 069°06'0 0.0
2018-Feb-15 14:29N 44°06' W 069°06'0 0.0
2018-Feb-15 13:58N 44°06' W 069°06'0 0.0
2018-Feb-15 13:28N 44°06' W 069°06'0 0.0
2018-Feb-15 12:58N 44°06' W 069°06'0 0.0
2018-Feb-15 12:28N 44°06' W 069°06'0 0.0
2018-Feb-15 11:58N 44°06' W 069°06'0 0.0
2018-Feb-15 11:28N 44°06' W 069°06'0 0.0
2018-Feb-15 10:58N 44°06' W 069°06'0 0.0
2018-Feb-15 10:28N 44°06' W 069°06'0 0.0
2018-Feb-15 09:58N 44°06' W 069°06'0 0.0
2018-Feb-15 09:29N 44°06' W 069°06'0 0.0
2018-Feb-15 08:59N 44°06' W 069°06'0 0.0
2018-Feb-15 08:30N 44°06' W 069°06'0 0.0
2018-Feb-15 07:59N 44°06' W 069°06'0 0.0
2018-Feb-15 07:29N 44°06' W 069°06'0 0.0
2018-Feb-15 06:59N 44°06' W 069°06'0 0.0
2018-Feb-15 06:25N 44°06' W 069°06'0 0.0
2018-Feb-15 05:59N 44°06' W 069°06'0 0.0
2018-Feb-15 05:29N 44°06' W 069°06'0 0.0
2018-Feb-15 04:58N 44°06' W 069°06'0 0.0
2018-Feb-15 04:28N 44°06' W 069°06'0 0.0
2018-Feb-15 03:56N 44°06' W 069°06'0 0.0
2018-Feb-15 03:28N 44°06' W 069°06'0 0.0
2018-Feb-15 02:58N 44°06' W 069°06'0 0.0
2018-Feb-15 02:29N 44°06' W 069°06'0 0.0
2018-Feb-15 01:58N 44°06' W 069°06'0 0.0
2018-Feb-15 01:28N 44°06' W 069°06'0 0.0
2018-Feb-15 00:58N 44°06' W 069°06'0 0.0
2018-Feb-15 00:28N 44°06' W 069°06'0 0.0
2018-Feb-14 23:58N 44°06' W 069°06'0 0.0
2018-Feb-14 23:28N 44°06' W 069°06'0 0.0
2018-Feb-14 22:58N 44°06' W 069°06'0 0.0
2018-Feb-14 22:29N 44°06' W 069°06'0 0.0
2018-Feb-14 21:59N 44°06' W 069°06'0 0.0
2018-Feb-14 21:29N 44°06' W 069°06'0 0.0
2018-Feb-14 20:59N 44°06' W 069°06'0 0.0
2018-Feb-14 20:25N 44°06' W 069°06'0 0.0
2018-Feb-14 19:59N 44°06' W 069°06'1 1.1
2018-Feb-14 19:30N 44°06' W 069°05'610.9
2018-Feb-14 18:59N 44°06' W 068°57'3 5.2
2018-Feb-14 18:28N 44°07' W 068°54'0 0.0
2018-Feb-14 18:00N 44°07' W 068°54'0 0.8
2018-Feb-14 17:26N 44°07' W 068°55'0 0.0
2018-Feb-14 17:00N 44°07' W 068°55'2 3.4
2018-Feb-14 16:29N 44°06' W 068°57'0 0.2
2018-Feb-14 16:00N 44°06' W 068°57'0 0.0
2018-Feb-14 15:28N 44°06' W 068°57'0 0.0
2018-Feb-14 14:59N 44°06' W 068°57'0 0.0
2018-Feb-14 14:27N 44°06' W 068°57'2 4.1
2018-Feb-14 13:59N 44°04' W 068°55'0 0.1
2018-Feb-14 13:29N 44°04' W 068°55'0 0.0
2018-Feb-14 13:00N 44°04' W 068°55'0 0.0
2018-Feb-14 12:28N 44°04' W 068°55'2 3.3
2018-Feb-14 12:00N 44°05' W 068°57'611.7
2018-Feb-14 11:29N 44°09' W 069°04'2 3.2
2018-Feb-14 11:00N 44°10' W 069°04'0 0.0
2018-Feb-14 10:30N 44°10' W 069°04'0 0.0
2018-Feb-14 09:57N 44°10' W 069°04'0 0.0
2018-Feb-14 09:28N 44°10' W 069°04'0 0.0
2018-Feb-14 08:58N 44°10' W 069°04'0 0.0
2018-Feb-14 08:28N 44°10' W 069°04'0 0.0
2018-Feb-14 07:58N 44°10' W 069°04'0 0.0
2018-Feb-14 07:28N 44°10' W 069°04'0 0.0
2018-Feb-14 06:59N 44°10' W 069°04'0 0.0
2018-Feb-14 06:28N 44°10' W 069°04'0 0.0
2018-Feb-14 05:58N 44°10' W 069°04'0 0.0
2018-Feb-14 05:28N 44°10' W 069°04'0 0.0
2018-Feb-14 04:58N 44°10' W 069°04'0 0.0
2018-Feb-14 04:29N 44°10' W 069°04'0 0.0
2018-Feb-14 03:59N 44°10' W 069°04'0 0.0
2018-Feb-14 03:28N 44°10' W 069°04'0 0.0
2018-Feb-14 02:58N 44°10' W 069°04'0 0.0
2018-Feb-14 02:28N 44°10' W 069°04'0 0.0
2018-Feb-14 01:58N 44°10' W 069°04'0 0.0
2018-Feb-14 01:28N 44°10' W 069°04'0 0.0
2018-Feb-14 00:58N 44°10' W 069°04'0 0.0
2018-Feb-14 00:28N 44°10' W 069°04'0 0.0
2018-Feb-13 23:58N 44°10' W 069°04'0 0.0
2018-Feb-13 23:28N 44°10' W 069°04'0 0.0
2018-Feb-13 22:58N 44°10' W 069°04'0 0.1
2018-Feb-13 22:27N 44°10' W 069°04'3 7.6
2018-Feb-13 22:00N 44°07' W 069°03'5 8.6
2018-Feb-13 21:29N 44°02' W 069°04'0 0.0
2018-Feb-13 21:00N 44°02' W 069°04'0 0.0
2018-Feb-13 20:27N 44°02' W 069°04'0 0.7
2018-Feb-13 20:00N 44°02' W 069°04'1 1.2
2018-Feb-13 19:29N 44°01' W 069°04'4 2.5
2018-Feb-13 17:56N 43°58' W 069°08'0 0.0
2018-Feb-13 17:30N 43°58' W 069°08'2 4.7
2018-Feb-13 16:59N 43°58' W 069°11'0 0.0
2018-Feb-13 16:29N 43°58' W 069°11'0 0.0
2018-Feb-13 15:59N 43°58' W 069°11'0 0.7
2018-Feb-13 15:30N 43°58' W 069°10'611.4
2018-Feb-13 14:59N 43°58' W 069°02'612.3
2018-Feb-13 14:30N 43°60' W 068°55'2 4.8
2018-Feb-13 13:59N 44°01' W 068°52'0 0.0
2018-Feb-13 13:27N 44°01' W 068°52'2 5.0
2018-Feb-13 13:00N 44°01' W 068°55'5 9.7
2018-Feb-13 12:29N 44°05' W 068°58'3 6.3
2018-Feb-13 11:59N 44°07' W 068°55'0 0.0
2018-Feb-13 11:29N 44°07' W 068°55'0 0.0
2018-Feb-13 10:59N 44°07' W 068°55'0 0.0
2018-Feb-13 10:29N 44°07' W 068°55'0 0.0
2018-Feb-13 09:59N 44°07' W 068°55'0 0.0
2018-Feb-13 09:30N 44°07' W 068°55'0 0.0
2018-Feb-13 08:56N 44°07' W 068°55'0 0.1
2018-Feb-13 08:30N 44°07' W 068°55'0 0.0
2018-Feb-13 08:00N 44°07' W 068°55'0 0.0
2018-Feb-13 07:30N 44°07' W 068°55'0 0.0
2018-Feb-13 06:57N 44°07' W 068°55'0 0.0
2018-Feb-13 06:30N 44°07' W 068°55'0 0.0
2018-Feb-13 06:00N 44°07' W 068°55'0 0.0
2018-Feb-13 05:30N 44°07' W 068°55'0 0.0
2018-Feb-13 05:00N 44°07' W 068°55'0 0.0
2018-Feb-13 04:29N 44°07' W 068°55'0 0.0
2018-Feb-13 03:57N 44°07' W 068°55'0 0.0
2018-Feb-13 03:29N 44°07' W 068°55'0 0.0
2018-Feb-13 02:59N 44°07' W 068°55'0 0.0
2018-Feb-13 02:30N 44°07' W 068°55'0 0.0
2018-Feb-13 02:00N 44°07' W 068°55'0 0.0
2018-Feb-13 01:27N 44°07' W 068°55'0 0.0
2018-Feb-13 01:00N 44°07' W 068°55'0 0.0
2018-Feb-13 00:30N 44°07' W 068°55'0 0.1
2018-Feb-12 23:59N 44°07' W 068°55'5 9.7
2018-Feb-12 23:30N 44°04' W 068°60'611.2
2018-Feb-12 23:00N 43°59' W 069°01'611.6
2018-Feb-12 22:29N 43°55' W 069°07'0 0.2
2018-Feb-12 22:00N 43°55' W 069°07'0 0.0
2018-Feb-12 21:29N 43°55' W 069°07'0 0.5
2018-Feb-12 21:00N 43°55' W 069°07'5 9.3
2018-Feb-12 20:30N 43°53' W 069°01'3 2.0
2018-Feb-12 19:03N 43°52' W 068°57'0 0.0
2018-Feb-12 18:56N 43°52' W 068°57'0 0.0
2018-Feb-12 18:20N 43°52' W 068°57'0 0.0
2018-Feb-12 17:58N 43°52' W 068°57'0 0.0
2018-Feb-12 17:30N 43°52' W 068°57'0 0.0
2018-Feb-12 16:45N 43°52' W 068°57'0 0.0
2018-Feb-12 16:30N 43°52' W 068°57'0 0.0
2018-Feb-12 15:17N 43°52' W 068°57'8 3.5
2018-Feb-12 12:57N 44°00' W 068°60'612.6
2018-Feb-12 12:30N 44°05' W 069°02'3 5.6
2018-Feb-12 11:56N 44°06' W 069°06'0 0.0
2018-Feb-12 11:20N 44°06' W 069°06'  
Track history (hours):
 
Tides and Currents Weather Stations Pressure Air Temp Water Temp Dewpoint Dewpoint Depression Visibility Wind Speed Wind Dir Waves Ship Positions

CG Abbie Burgess

Last reported at 2018-Feb-22 09:00 UTC. Time now 2018-Feb-22 09:18 UTC.
Position N 44°07' W 068°55'.

Length 53 m; draft 2.7 m.

Type: Military. MMSI: 368941000.

Date/timePositionNaut miles runAvg speedWind from/ knotsBaromVisibWave heightAir tempDewpointWater temp
2018-Feb-22 09:00N 44°07' W 068°55'0 0.0
2018-Feb-22 08:29N 44°07' W 068°55'0 0.0
2018-Feb-22 07:58N 44°07' W 068°55'0 0.0
2018-Feb-22 07:29N 44°07' W 068°55'0 0.0
2018-Feb-22 07:00N 44°07' W 068°55'0 0.0
2018-Feb-22 06:30N 44°07' W 068°55'0 0.0
2018-Feb-22 06:00N 44°07' W 068°55'0 0.0
2018-Feb-22 05:29N 44°07' W 068°55'0 0.0
2018-Feb-22 05:00N 44°07' W 068°55'0 0.0
2018-Feb-22 04:27N 44°07' W 068°55'0 0.0
2018-Feb-22 03:57N 44°07' W 068°55'0 0.0
2018-Feb-22 03:30N 44°07' W 068°55'0 0.0
2018-Feb-22 02:58N 44°07' W 068°55'0 0.0
2018-Feb-22 02:30N 44°07' W 068°55'0 0.0
2018-Feb-22 01:58N 44°07' W 068°55'0 0.0
2018-Feb-22 01:26N 44°07' W 068°55'0 0.3
2018-Feb-22 00:59N 44°07' W 068°55'510.0
2018-Feb-22 00:29N 44°06' W 069°02'2 3.3
2018-Feb-21 23:58N 44°06' W 069°04'1 1.4
2018-Feb-21 23:29N 44°06' W 069°03'5 9.5
2018-Feb-21 23:00N 44°06' W 068°57'4 7.3
2018-Feb-21 22:30N 44°07' W 068°52'0 0.0
2018-Feb-21 21:57N 44°07' W 068°52'1 2.0
2018-Feb-21 21:30N 44°08' W 068°51'1 1.1
2018-Feb-21 20:58N 44°08' W 068°51'0 0.0
2018-Feb-21 20:27N 44°08' W 068°51'3 5.7
2018-Feb-21 19:59N 44°07' W 068°47'4 1.7
2018-Feb-21 17:48N 44°10' W 068°44'0 0.0
2018-Feb-21 17:25N 44°10' W 068°44'0 0.0
2018-Feb-21 16:59N 44°10' W 068°44'1 1.0
2018-Feb-21 16:23N 44°10' W 068°44'4 7.1
2018-Feb-21 15:52N 44°07' W 068°48'1 0.6
2018-Feb-21 13:40N 44°08' W 068°50'0 0.0
2018-Feb-21 13:29N 44°08' W 068°50'0 0.0
2018-Feb-21 12:53N 44°08' W 068°50'0 0.0
2018-Feb-21 12:29N 44°08' W 068°50'0 0.0
2018-Feb-21 11:16N 44°08' W 068°50'0 0.1
2018-Feb-21 10:55N 44°08' W 068°50'0 0.0
2018-Feb-21 10:25N 44°08' W 068°50'0 0.0
2018-Feb-21 09:52N 44°08' W 068°50'0 0.0
2018-Feb-21 09:28N 44°08' W 068°50'0 0.0
2018-Feb-21 08:58N 44°08' W 068°50'0 0.1
2018-Feb-21 08:28N 44°08' W 068°50'0 0.0
2018-Feb-21 07:49N 44°08' W 068°50'0 0.0
2018-Feb-21 07:28N 44°08' W 068°50'0 0.0
2018-Feb-21 06:58N 44°08' W 068°50'0 0.1
2018-Feb-21 06:28N 44°08' W 068°50'0 0.0
2018-Feb-21 05:58N 44°08' W 068°50'0 0.0
2018-Feb-21 05:29N 44°08' W 068°50'0 0.0
2018-Feb-21 04:59N 44°08' W 068°50'0 0.0
2018-Feb-21 04:29N 44°08' W 068°50'0 0.0
2018-Feb-21 03:58N 44°08' W 068°50'0 0.0
2018-Feb-21 03:26N 44°08' W 068°50'0 0.0
2018-Feb-21 02:52N 44°08' W 068°50'0 0.0
2018-Feb-21 02:28N 44°08' W 068°50'0 0.0
2018-Feb-21 01:52N 44°08' W 068°50'0 0.0
2018-Feb-21 01:27N 44°08' W 068°50'0 0.0
2018-Feb-21 00:58N 44°08' W 068°50'0 0.0
2018-Feb-21 00:28N 44°08' W 068°50'0 0.0
2018-Feb-20 23:51N 44°08' W 068°50'0 0.0
2018-Feb-20 23:29N 44°08' W 068°50'0 0.0
2018-Feb-20 23:00N 44°08' W 068°50'0 0.2
2018-Feb-20 22:27N 44°08' W 068°50'0 0.9
2018-Feb-20 21:59N 44°08' W 068°49'0 0.1
2018-Feb-20 21:26N 44°08' W 068°49'2 4.5
2018-Feb-20 21:00N 44°08' W 068°47'0 0.1
2018-Feb-20 20:30N 44°08' W 068°47'5 2.6
2018-Feb-20 18:38N 44°06' W 068°40'1 4.0
2018-Feb-20 18:30N 44°06' W 068°40'0 0.2
2018-Feb-20 17:50N 44°06' W 068°40'0 0.0
2018-Feb-20 17:24N 44°06' W 068°40'0 0.0
2018-Feb-20 16:58N 44°06' W 068°40'0 0.2
2018-Feb-20 16:30N 44°06' W 068°40'2 3.4
2018-Feb-20 15:53N 44°04' W 068°41'0 0.1
2018-Feb-20 15:30N 44°04' W 068°41'3 1.2
2018-Feb-20 13:10N 44°05' W 068°44'211.7
2018-Feb-20 12:59N 44°06' W 068°47'2 4.3
2018-Feb-20 12:28N 44°08' W 068°49'0 0.0
2018-Feb-20 11:59N 44°08' W 068°49'0 0.0
2018-Feb-20 11:29N 44°08' W 068°49'0 0.0
2018-Feb-20 10:58N 44°08' W 068°49'0 0.0
2018-Feb-20 10:29N 44°08' W 068°49'0 0.0
2018-Feb-20 10:00N 44°08' W 068°49'0 0.1
2018-Feb-20 09:26N 44°08' W 068°49'0 0.1
2018-Feb-20 09:00N 44°08' W 068°49'0 0.0
2018-Feb-20 08:28N 44°08' W 068°49'0 0.0
2018-Feb-20 08:00N 44°08' W 068°49'0 0.0
2018-Feb-20 07:28N 44°08' W 068°49'0 0.0
2018-Feb-20 07:00N 44°08' W 068°49'0 0.0
2018-Feb-20 06:29N 44°08' W 068°49'0 0.0
2018-Feb-20 05:59N 44°08' W 068°49'0 0.0
2018-Feb-20 05:28N 44°08' W 068°49'0 0.0
2018-Feb-20 04:59N 44°08' W 068°49'0 0.0
2018-Feb-20 04:30N 44°08' W 068°49'0 0.0
2018-Feb-20 03:58N 44°08' W 068°49'0 0.0
2018-Feb-20 03:29N 44°08' W 068°49'0 0.0
2018-Feb-20 03:00N 44°08' W 068°49'0 0.0
2018-Feb-20 02:30N 44°08' W 068°49'0 0.0
2018-Feb-20 02:00N 44°08' W 068°49'0 0.0
2018-Feb-20 01:29N 44°08' W 068°49'0 0.0
2018-Feb-20 01:00N 44°08' W 068°49'0 0.0
2018-Feb-20 00:28N 44°08' W 068°49'0 0.0
2018-Feb-20 00:00N 44°08' W 068°49'0 0.3
2018-Feb-19 23:29N 44°08' W 068°50'2 3.6
2018-Feb-19 23:01N 44°07' W 068°47'4 4.1
2018-Feb-19 22:00N 44°03' W 068°46'1 0.4
2018-Feb-19 19:47N 44°02' W 068°47'1 2.5
2018-Feb-19 19:30N 44°02' W 068°48'0 0.1
2018-Feb-19 18:58N 44°02' W 068°48'0 0.1
2018-Feb-19 18:25N 44°02' W 068°48'0 0.2
2018-Feb-19 17:01N 44°02' W 068°48'0 0.7
2018-Feb-19 16:58N 44°02' W 068°47'2 3.4
2018-Feb-19 16:30N 44°01' W 068°50'1 1.2
2018-Feb-19 15:58N 44°01' W 068°50'0 0.0
2018-Feb-19 15:29N 44°01' W 068°50'0 0.0
2018-Feb-19 15:00N 44°01' W 068°50'1 0.6
2018-Feb-19 13:33N 44°01' W 068°51'0 4.6
2018-Feb-19 13:29N 44°01' W 068°52'510.0
2018-Feb-19 13:00N 44°02' W 068°58'611.6
2018-Feb-19 12:30N 44°06' W 069°04'1 2.7
2018-Feb-19 11:58N 44°06' W 069°06'0 0.0
2018-Feb-19 11:28N 44°06' W 069°06'0 0.0
2018-Feb-19 10:59N 44°06' W 069°06'0 0.0
2018-Feb-19 10:29N 44°06' W 069°06'0 0.0
2018-Feb-19 09:59N 44°06' W 069°06'0 0.0
2018-Feb-19 09:28N 44°06' W 069°06'0 0.0
2018-Feb-19 09:00N 44°06' W 069°06'0 0.0
2018-Feb-19 08:24N 44°06' W 069°06'0 0.0
2018-Feb-19 07:58N 44°06' W 069°06'0 0.0
2018-Feb-19 07:28N 44°06' W 069°06'0 0.0
2018-Feb-19 06:58N 44°06' W 069°06'0 0.0
2018-Feb-19 06:28N 44°06' W 069°06'0 0.0
2018-Feb-19 05:58N 44°06' W 069°06'0 0.0
2018-Feb-19 05:28N 44°06' W 069°06'0 0.0
2018-Feb-19 05:00N 44°06' W 069°06'0 0.0
2018-Feb-19 04:28N 44°06' W 069°06'0 0.0
2018-Feb-19 03:58N 44°06' W 069°06'0 0.0
2018-Feb-19 03:28N 44°06' W 069°06'0 0.0
2018-Feb-19 02:58N 44°06' W 069°06'0 0.0
2018-Feb-19 02:28N 44°06' W 069°06'0 0.0
2018-Feb-19 01:58N 44°06' W 069°06'0 0.0
2018-Feb-19 01:29N 44°06' W 069°06'0 0.0
2018-Feb-19 00:59N 44°06' W 069°06'0 0.0
2018-Feb-19 00:29N 44°06' W 069°06'0 0.0
2018-Feb-18 23:59N 44°06' W 069°06'0 0.0
2018-Feb-18 23:29N 44°06' W 069°06'0 0.0
2018-Feb-18 22:58N 44°06' W 069°06'0 0.0
2018-Feb-18 22:29N 44°06' W 069°06'0 0.0
2018-Feb-18 21:58N 44°06' W 069°06'0 0.0
2018-Feb-18 21:28N 44°06' W 069°06'0 0.0
2018-Feb-18 20:58N 44°06' W 069°06'0 0.0
2018-Feb-18 20:28N 44°06' W 069°06'0 0.0
2018-Feb-18 19:56N 44°06' W 069°06'0 0.0
2018-Feb-18 19:28N 44°06' W 069°06'0 0.0
2018-Feb-18 18:58N 44°06' W 069°06'0 0.0
2018-Feb-18 18:28N 44°06' W 069°06'0 0.0
2018-Feb-18 17:58N 44°06' W 069°06'0 0.0
2018-Feb-18 17:28N 44°06' W 069°06'0 0.0
2018-Feb-18 16:58N 44°06' W 069°06'0 0.0
2018-Feb-18 16:28N 44°06' W 069°06'0 0.0
2018-Feb-18 15:58N 44°06' W 069°06'0 0.0
2018-Feb-18 15:28N 44°06' W 069°06'0 0.0
2018-Feb-18 14:58N 44°06' W 069°06'0 0.0
2018-Feb-18 14:28N 44°06' W 069°06'0 0.0
2018-Feb-18 13:59N 44°06' W 069°06'0 0.0
2018-Feb-18 13:29N 44°06' W 069°06'0 0.0
2018-Feb-18 12:58N 44°06' W 069°06'0 0.0
2018-Feb-18 12:28N 44°06' W 069°06'0 0.0
2018-Feb-18 11:59N 44°06' W 069°06'0 0.0
2018-Feb-18 11:28N 44°06' W 069°06'0 0.0
2018-Feb-18 10:58N 44°06' W 069°06'0 0.0
2018-Feb-18 10:28N 44°06' W 069°06'0 0.0
2018-Feb-18 09:58N 44°06' W 069°06'0 0.0
2018-Feb-18 09:28N 44°06' W 069°06'0 0.0
2018-Feb-18 08:58N 44°06' W 069°06'0 0.0
2018-Feb-18 08:28N 44°06' W 069°06'0 0.0
2018-Feb-18 07:58N 44°06' W 069°06'0 0.0
2018-Feb-18 07:28N 44°06' W 069°06'0 0.0
2018-Feb-18 06:58N 44°06' W 069°06'0 0.0
2018-Feb-18 06:28N 44°06' W 069°06'0 0.0
2018-Feb-18 05:58N 44°06' W 069°06'0 0.0
2018-Feb-18 05:28N 44°06' W 069°06'0 0.0
2018-Feb-18 04:59N 44°06' W 069°06'0 0.0
2018-Feb-18 04:29N 44°06' W 069°06'0 0.0
2018-Feb-18 03:59N 44°06' W 069°06'0 0.0
2018-Feb-18 03:28N 44°06' W 069°06'0 0.0
2018-Feb-18 02:58N 44°06' W 069°06'0 0.0
2018-Feb-18 02:28N 44°06' W 069°06'0 0.0
2018-Feb-18 01:58N 44°06' W 069°06'0 0.0
2018-Feb-18 01:28N 44°06' W 069°06'0 0.0
2018-Feb-18 00:58N 44°06' W 069°06'0 0.0
2018-Feb-18 00:28N 44°06' W 069°06'0 0.0
2018-Feb-17 23:58N 44°06' W 069°06'0 0.0
2018-Feb-17 23:27N 44°06' W 069°06'0 0.0
2018-Feb-17 22:58N 44°06' W 069°06'0 0.0
2018-Feb-17 22:28N 44°06' W 069°06'0 0.0
2018-Feb-17 21:59N 44°06' W 069°06'0 0.0
2018-Feb-17 21:29N 44°06' W 069°06'0 0.0
2018-Feb-17 20:59N 44°06' W 069°06'0 0.0
2018-Feb-17 20:29N 44°06' W 069°06'0 0.0
2018-Feb-17 19:59N 44°06' W 069°06'0 0.0
2018-Feb-17 19:28N 44°06' W 069°06'0 0.0
2018-Feb-17 18:58N 44°06' W 069°06'0 0.0
2018-Feb-17 18:28N 44°06' W 069°06'0 0.0
2018-Feb-17 17:58N 44°06' W 069°06'0 0.0
2018-Feb-17 17:28N 44°06' W 069°06'0 0.0
2018-Feb-17 16:58N 44°06' W 069°06'0 0.0
2018-Feb-17 16:28N 44°06' W 069°06'0 0.0
2018-Feb-17 15:58N 44°06' W 069°06'0 0.0
2018-Feb-17 15:28N 44°06' W 069°06'0 0.0
2018-Feb-17 14:58N 44°06' W 069°06'0 0.0
2018-Feb-17 14:28N 44°06' W 069°06'0 0.0
2018-Feb-17 13:56N 44°06' W 069°06'0 0.0
2018-Feb-17 13:28N 44°06' W 069°06'0 0.0
2018-Feb-17 12:58N 44°06' W 069°06'0 0.0
2018-Feb-17 12:28N 44°06' W 069°06'0 0.0
2018-Feb-17 11:58N 44°06' W 069°06'0 0.0
2018-Feb-17 11:28N 44°06' W 069°06'0 0.0
2018-Feb-17 10:58N 44°06' W 069°06'0 0.0
2018-Feb-17 10:29N 44°06' W 069°06'0 0.0
2018-Feb-17 09:59N 44°06' W 069°06'0 0.0
2018-Feb-17 09:29N 44°06' W 069°06'0 0.0
2018-Feb-17 08:59N 44°06' W 069°06'0 0.0
2018-Feb-17 08:29N 44°06' W 069°06'0 0.0
2018-Feb-17 07:59N 44°06' W 069°06'0 0.0
2018-Feb-17 07:28N 44°06' W 069°06'0 0.0
2018-Feb-17 06:58N 44°06' W 069°06'0 0.0
2018-Feb-17 06:28N 44°06' W 069°06'0 0.0
2018-Feb-17 05:58N 44°06' W 069°06'0 0.0
2018-Feb-17 05:28N 44°06' W 069°06'0 0.0
2018-Feb-17 04:58N 44°06' W 069°06'0 0.0
2018-Feb-17 04:30N 44°06' W 069°06'0 0.0
2018-Feb-17 03:59N 44°06' W 069°06'0 0.0
2018-Feb-17 03:28N 44°06' W 069°06'0 0.0
2018-Feb-17 02:58N 44°06' W 069°06'0 0.0
2018-Feb-17 02:28N 44°06' W 069°06'0 0.0
2018-Feb-17 01:58N 44°06' W 069°06'0 0.0
2018-Feb-17 01:28N 44°06' W 069°06'0 0.0
2018-Feb-17 00:58N 44°06' W 069°06'0 0.0
2018-Feb-17 00:28N 44°06' W 069°06'0 0.0
2018-Feb-16 23:58N 44°06' W 069°06'0 0.0
2018-Feb-16 23:28N 44°06' W 069°06'0 0.0
2018-Feb-16 22:59N 44°06' W 069°06'0 0.0
2018-Feb-16 22:29N 44°06' W 069°06'0 0.0
2018-Feb-16 21:59N 44°06' W 069°06'0 0.0
2018-Feb-16 21:29N 44°06' W 069°06'0 0.0
2018-Feb-16 20:59N 44°06' W 069°06'0 0.0
2018-Feb-16 20:28N 44°06' W 069°06'0 0.0
2018-Feb-16 19:58N 44°06' W 069°06'0 0.0
2018-Feb-16 19:28N 44°06' W 069°06'0 0.0
2018-Feb-16 18:59N 44°06' W 069°06'0 0.0
2018-Feb-16 18:28N 44°06' W 069°06'0 0.0
2018-Feb-16 17:58N 44°06' W 069°06'0 0.0
2018-Feb-16 17:28N 44°06' W 069°06'0 0.0
2018-Feb-16 16:58N 44°06' W 069°06'0 0.0
2018-Feb-16 16:23N 44°06' W 069°06'0 0.0
2018-Feb-16 15:58N 44°06' W 069°06'0 0.0
2018-Feb-16 15:28N 44°06' W 069°06'0 0.0
2018-Feb-16 14:59N 44°06' W 069°06'0 0.0
2018-Feb-16 14:29N 44°06' W 069°06'0 0.0
2018-Feb-16 13:59N 44°06' W 069°06'0 0.0
2018-Feb-16 13:29N 44°06' W 069°06'0 0.0
2018-Feb-16 12:59N 44°06' W 069°06'0 0.0
2018-Feb-16 12:28N 44°06' W 069°06'0 0.0
2018-Feb-16 11:58N 44°06' W 069°06'0 0.0
2018-Feb-16 11:28N 44°06' W 069°06'0 0.0
2018-Feb-16 10:58N 44°06' W 069°06'0 0.0
2018-Feb-16 10:28N 44°06' W 069°06'0 0.0
2018-Feb-16 09:55N 44°06' W 069°06'0 0.0
2018-Feb-16 09:28N 44°06' W 069°06'0 0.0
2018-Feb-16 08:58N 44°06' W 069°06'0 0.0
2018-Feb-16 08:30N 44°06' W 069°06'0 0.0
2018-Feb-16 07:58N 44°06' W 069°06'0 0.0
2018-Feb-16 07:29N 44°06' W 069°06'0 0.0
2018-Feb-16 07:00N 44°06' W 069°06'0 0.0
2018-Feb-16 06:29N 44°06' W 069°06'0 0.0
2018-Feb-16 05:58N 44°06' W 069°06'0 0.0
2018-Feb-16 05:28N 44°06' W 069°06'0 0.0
2018-Feb-16 04:52N 44°06' W 069°06'0 0.0
2018-Feb-16 04:29N 44°06' W 069°06'0 0.0
2018-Feb-16 03:58N 44°06' W 069°06'0 0.0
2018-Feb-16 03:28N 44°06' W 069°06'0 0.0
2018-Feb-16 02:58N 44°06' W 069°06'0 0.0
2018-Feb-16 02:28N 44°06' W 069°06'0 0.0
2018-Feb-16 01:59N 44°06' W 069°06'0 0.0
2018-Feb-16 01:28N 44°06' W 069°06'0 0.0
2018-Feb-16 00:58N 44°06' W 069°06'0 0.0
2018-Feb-16 00:29N 44°06' W 069°06'0 0.0
2018-Feb-15 23:59N 44°06' W 069°06'0 0.0
2018-Feb-15 23:29N 44°06' W 069°06'0 0.0
2018-Feb-15 22:59N 44°06' W 069°06'0 0.0
2018-Feb-15 22:29N 44°06' W 069°06'0 0.0
2018-Feb-15 21:59N 44°06' W 069°06'0 0.0
2018-Feb-15 21:28N 44°06' W 069°06'0 0.0
2018-Feb-15 20:58N 44°06' W 069°06'0 0.0
2018-Feb-15 20:28N 44°06' W 069°06'0 0.0
2018-Feb-15 19:58N 44°06' W 069°06'0 0.0
2018-Feb-15 19:28N 44°06' W 069°06'0 0.0
2018-Feb-15 18:58N 44°06' W 069°06'0 0.0
2018-Feb-15 18:29N 44°06' W 069°06'0 0.0
2018-Feb-15 17:59N 44°06' W 069°06'0 0.0
2018-Feb-15 17:28N 44°06' W 069°06'0 0.0
2018-Feb-15 16:59N 44°06' W 069°06'0 0.0
2018-Feb-15 16:29N 44°06' W 069°06'0 0.0
2018-Feb-15 15:59N 44°06' W 069°06'0 0.0
2018-Feb-15 15:29N 44°06' W 069°06'0 0.0
2018-Feb-15 14:59N 44°06' W 069°06'0 0.0
2018-Feb-15 14:29N 44°06' W 069°06'0 0.0
2018-Feb-15 13:58N 44°06' W 069°06'0 0.0
2018-Feb-15 13:28N 44°06' W 069°06'0 0.0
2018-Feb-15 12:58N 44°06' W 069°06'0 0.0
2018-Feb-15 12:28N 44°06' W 069°06'0 0.0
2018-Feb-15 11:58N 44°06' W 069°06'0 0.0
2018-Feb-15 11:28N 44°06' W 069°06'0 0.0
2018-Feb-15 10:58N 44°06' W 069°06'0 0.0
2018-Feb-15 10:28N 44°06' W 069°06'0 0.0
2018-Feb-15 09:58N 44°06' W 069°06'0 0.0
2018-Feb-15 09:29N 44°06' W 069°06'0 0.0
2018-Feb-15 08:59N 44°06' W 069°06'0 0.0
2018-Feb-15 08:30N 44°06' W 069°06'0 0.0
2018-Feb-15 07:59N 44°06' W 069°06'0 0.0
2018-Feb-15 07:29N 44°06' W 069°06'0 0.0
2018-Feb-15 06:59N 44°06' W 069°06'0 0.0
2018-Feb-15 06:25N 44°06' W 069°06'0 0.0
2018-Feb-15 05:59N 44°06' W 069°06'0 0.0
2018-Feb-15 05:29N 44°06' W 069°06'0 0.0
2018-Feb-15 04:58N 44°06' W 069°06'0 0.0
2018-Feb-15 04:28N 44°06' W 069°06'0 0.0
2018-Feb-15 03:56N 44°06' W 069°06'0 0.0
2018-Feb-15 03:28N 44°06' W 069°06'0 0.0
2018-Feb-15 02:58N 44°06' W 069°06'0 0.0
2018-Feb-15 02:29N 44°06' W 069°06'0 0.0
2018-Feb-15 01:58N 44°06' W 069°06'0 0.0
2018-Feb-15 01:28N 44°06' W 069°06'0 0.0
2018-Feb-15 00:58N 44°06' W 069°06'0 0.0
2018-Feb-15 00:28N 44°06' W 069°06'0 0.0
2018-Feb-14 23:58N 44°06' W 069°06'0 0.0
2018-Feb-14 23:28N 44°06' W 069°06'0 0.0
2018-Feb-14 22:58N 44°06' W 069°06'0 0.0
2018-Feb-14 22:29N 44°06' W 069°06'0 0.0
2018-Feb-14 21:59N 44°06' W 069°06'0 0.0
2018-Feb-14 21:29N 44°06' W 069°06'0 0.0
2018-Feb-14 20:59N 44°06' W 069°06'0 0.0
2018-Feb-14 20:25N 44°06' W 069°06'0 0.0
2018-Feb-14 19:59N 44°06' W 069°06'1 1.1
2018-Feb-14 19:30N 44°06' W 069°05'610.9
2018-Feb-14 18:59N 44°06' W 068°57'3 5.2
2018-Feb-14 18:28N 44°07' W 068°54'0 0.0
2018-Feb-14 18:00N 44°07' W 068°54'0 0.8
2018-Feb-14 17:26N 44°07' W 068°55'0 0.0
2018-Feb-14 17:00N 44°07' W 068°55'2 3.4
2018-Feb-14 16:29N 44°06' W 068°57'0 0.2
2018-Feb-14 16:00N 44°06' W 068°57'0 0.0
2018-Feb-14 15:28N 44°06' W 068°57'0 0.0
2018-Feb-14 14:59N 44°06' W 068°57'0 0.0
2018-Feb-14 14:27N 44°06' W 068°57'2 4.1
2018-Feb-14 13:59N 44°04' W 068°55'0 0.1
2018-Feb-14 13:29N 44°04' W 068°55'0 0.0
2018-Feb-14 13:00N 44°04' W 068°55'0 0.0
2018-Feb-14 12:28N 44°04' W 068°55'2 3.3
2018-Feb-14 12:00N 44°05' W 068°57'611.7
2018-Feb-14 11:29N 44°09' W 069°04'2 3.2
2018-Feb-14 11:00N 44°10' W 069°04'0 0.0
2018-Feb-14 10:30N 44°10' W 069°04'0 0.0
2018-Feb-14 09:57N 44°10' W 069°04'0 0.0
2018-Feb-14 09:28N 44°10' W 069°04'0 0.0
2018-Feb-14 08:58N 44°10' W 069°04'0 0.0
2018-Feb-14 08:28N 44°10' W 069°04'0 0.0
2018-Feb-14 07:58N 44°10' W 069°04'0 0.0
2018-Feb-14 07:28N 44°10' W 069°04'0 0.0
2018-Feb-14 06:59N 44°10' W 069°04'0 0.0
2018-Feb-14 06:28N 44°10' W 069°04'0 0.0
2018-Feb-14 05:58N 44°10' W 069°04'0 0.0
2018-Feb-14 05:28N 44°10' W 069°04'0 0.0
2018-Feb-14 04:58N 44°10' W 069°04'0 0.0
2018-Feb-14 04:29N 44°10' W 069°04'0 0.0
2018-Feb-14 03:59N 44°10' W 069°04'0 0.0
2018-Feb-14 03:28N 44°10' W 069°04'0 0.0
2018-Feb-14 02:58N 44°10' W 069°04'0 0.0
2018-Feb-14 02:28N 44°10' W 069°04'0 0.0
2018-Feb-14 01:58N 44°10' W 069°04'0 0.0
2018-Feb-14 01:28N 44°10' W 069°04'0 0.0
2018-Feb-14 00:58N 44°10' W 069°04'0 0.0
2018-Feb-14 00:28N 44°10' W 069°04'0 0.0
2018-Feb-13 23:58N 44°10' W 069°04'0 0.0
2018-Feb-13 23:28N 44°10' W 069°04'0 0.0
2018-Feb-13 22:58N 44°10' W 069°04'0 0.1
2018-Feb-13 22:27N 44°10' W 069°04'3 7.6
2018-Feb-13 22:00N 44°07' W 069°03'5 8.6
2018-Feb-13 21:29N 44°02' W 069°04'0 0.0
2018-Feb-13 21:00N 44°02' W 069°04'0 0.0
2018-Feb-13 20:27N 44°02' W 069°04'0 0.7
2018-Feb-13 20:00N 44°02' W 069°04'1 1.2
2018-Feb-13 19:29N 44°01' W 069°04'4 2.5
2018-Feb-13 17:56N 43°58' W 069°08'0 0.0
2018-Feb-13 17:30N 43°58' W 069°08'2 4.7
2018-Feb-13 16:59N 43°58' W 069°11'0 0.0
2018-Feb-13 16:29N 43°58' W 069°11'0 0.0
2018-Feb-13 15:59N 43°58' W 069°11'0 0.7
2018-Feb-13 15:30N 43°58' W 069°10'611.4
2018-Feb-13 14:59N 43°58' W 069°02'612.3
2018-Feb-13 14:30N 43°60' W 068°55'2 4.8
2018-Feb-13 13:59N 44°01' W 068°52'0 0.0
2018-Feb-13 13:27N 44°01' W 068°52'2 5.0
2018-Feb-13 13:00N 44°01' W 068°55'5 9.7
2018-Feb-13 12:29N 44°05' W 068°58'3 6.3
2018-Feb-13 11:59N 44°07' W 068°55'0 0.0
2018-Feb-13 11:29N 44°07' W 068°55'0 0.0
2018-Feb-13 10:59N 44°07' W 068°55'0 0.0
2018-Feb-13 10:29N 44°07' W 068°55'0 0.0
2018-Feb-13 09:59N 44°07' W 068°55'0 0.0
2018-Feb-13 09:30N 44°07' W 068°55'0 0.0
2018-Feb-13 08:56N 44°07' W 068°55'0 0.1
2018-Feb-13 08:30N 44°07' W 068°55'0 0.0
2018-Feb-13 08:00N 44°07' W 068°55'0 0.0
2018-Feb-13 07:30N 44°07' W 068°55'0 0.0
2018-Feb-13 06:57N 44°07' W 068°55'0 0.0
2018-Feb-13 06:30N 44°07' W 068°55'0 0.0
2018-Feb-13 06:00N 44°07' W 068°55'0 0.0
2018-Feb-13 05:30N 44°07' W 068°55'0 0.0
2018-Feb-13 05:00N 44°07' W 068°55'0 0.0
2018-Feb-13 04:29N 44°07' W 068°55'0 0.0
2018-Feb-13 03:57N 44°07' W 068°55'0 0.0
2018-Feb-13 03:29N 44°07' W 068°55'0 0.0
2018-Feb-13 02:59N 44°07' W 068°55'0 0.0
2018-Feb-13 02:30N 44°07' W 068°55'0 0.0
2018-Feb-13 02:00N 44°07' W 068°55'0 0.0
2018-Feb-13 01:27N 44°07' W 068°55'0 0.0
2018-Feb-13 01:00N 44°07' W 068°55'0 0.0
2018-Feb-13 00:30N 44°07' W 068°55'0 0.1
2018-Feb-12 23:59N 44°07' W 068°55'5 9.7
2018-Feb-12 23:30N 44°04' W 068°60'611.2
2018-Feb-12 23:00N 43°59' W 069°01'611.6
2018-Feb-12 22:29N 43°55' W 069°07'0 0.2
2018-Feb-12 22:00N 43°55' W 069°07'0 0.0
2018-Feb-12 21:29N 43°55' W 069°07'0 0.5
2018-Feb-12 21:00N 43°55' W 069°07'5 9.3
2018-Feb-12 20:30N 43°53' W 069°01'3 2.0
2018-Feb-12 19:03N 43°52' W 068°57'0 0.0
2018-Feb-12 18:56N 43°52' W 068°57'0 0.0
2018-Feb-12 18:20N 43°52' W 068°57'0 0.0
2018-Feb-12 17:58N 43°52' W 068°57'0 0.0
2018-Feb-12 17:30N 43°52' W 068°57'0 0.0
2018-Feb-12 16:45N 43°52' W 068°57'0 0.0
2018-Feb-12 16:30N 43°52' W 068°57'0 0.0
2018-Feb-12 15:17N 43°52' W 068°57'8 3.5
2018-Feb-12 12:57N 44°00' W 068°60'612.6
2018-Feb-12 12:30N 44°05' W 069°02'3 5.6
2018-Feb-12 11:56N 44°06' W 069°06'0 0.0
2018-Feb-12 11:20N 44°06' W 069°06'  

Dump ship's entire track history